sensor_id;sensor_type;location;lat;lon;timestamp;temperature;humidity
36594;DHT22;22603;47.900;8.146;2024-03-23T00:52:25;8.40;99.90
36594;DHT22;22603;47.900;8.146;2024-03-23T00:55:11;8.40;99.90
36594;DHT22;22603;47.900;8.146;2024-03-23T00:57:56;8.60;99.90
36594;DHT22;22603;47.900;8.146;2024-03-23T01:00:41;8.90;99.90
36594;DHT22;22603;47.900;8.146;2024-03-23T01:03:26;8.80;99.90
36594;DHT22;22603;47.900;8.146;2024-03-23T01:06:12;8.80;99.90
36594;DHT22;22603;47.900;8.146;2024-03-23T01:08:58;8.80;99.90
36594;DHT22;22603;47.900;8.146;2024-03-23T01:11:44;8.70;99.90
36594;DHT22;22603;47.900;8.146;2024-03-23T01:14:29;9.00;99.90
36594;DHT22;22603;47.900;8.146;2024-03-23T01:17:15;8.80;99.90
36594;DHT22;22603;47.900;8.146;2024-03-23T01:19:59;8.50;99.90
36594;DHT22;22603;47.900;8.146;2024-03-23T01:22:45;8.80;99.90
36594;DHT22;22603;47.900;8.146;2024-03-23T01:25:31;9.20;99.90
36594;DHT22;22603;47.900;8.146;2024-03-23T01:28:17;9.30;99.90
36594;DHT22;22603;47.900;8.146;2024-03-23T01:31:02;9.40;99.90
36594;DHT22;22603;47.900;8.146;2024-03-23T01:33:48;9.90;99.90
36594;DHT22;22603;47.900;8.146;2024-03-23T01:36:33;10.00;99.90
36594;DHT22;22603;47.900;8.146;2024-03-23T01:39:19;10.10;99.90
36594;DHT22;22603;47.900;8.146;2024-03-23T01:42:05;10.20;99.90
36594;DHT22;22603;47.900;8.146;2024-03-23T01:44:51;10.20;99.90
36594;DHT22;22603;47.900;8.146;2024-03-23T01:47:36;10.20;99.90
36594;DHT22;22603;47.900;8.146;2024-03-23T01:50:22;10.30;99.90
36594;DHT22;22603;47.900;8.146;2024-03-23T01:53:08;10.30;99.90
36594;DHT22;22603;47.900;8.146;2024-03-23T01:55:54;10.50;99.90
36594;DHT22;22603;47.900;8.146;2024-03-23T01:58:40;10.60;99.90
36594;DHT22;22603;47.900;8.146;2024-03-23T02:01:26;10.70;99.90
36594;DHT22;22603;47.900;8.146;2024-03-23T02:04:11;10.70;99.90
36594;DHT22;22603;47.900;8.146;2024-03-23T02:06:57;10.70;99.90
36594;DHT22;22603;47.900;8.146;2024-03-23T02:09:42;10.70;99.90
36594;DHT22;22603;47.900;8.146;2024-03-23T02:12:29;10.70;99.90
36594;DHT22;22603;47.900;8.146;2024-03-23T02:15:15;10.70;99.90
36594;DHT22;22603;47.900;8.146;2024-03-23T02:18:01;10.90;99.90
36594;DHT22;22603;47.900;8.146;2024-03-23T02:20:45;10.90;99.90
36594;DHT22;22603;47.900;8.146;2024-03-23T02:23:33;11.00;99.90
36594;DHT22;22603;47.900;8.146;2024-03-23T02:26:17;11.00;99.90
36594;DHT22;22603;47.900;8.146;2024-03-23T02:29:03;11.00;99.90
36594;DHT22;22603;47.900;8.146;2024-03-23T02:31:48;11.00;99.90
36594;DHT22;22603;47.900;8.146;2024-03-23T02:34:33;11.00;99.90
36594;DHT22;22603;47.900;8.146;2024-03-23T02:37:18;11.00;99.90
36594;DHT22;22603;47.900;8.146;2024-03-23T02:40:06;11.00;99.90
36594;DHT22;22603;47.900;8.146;2024-03-23T02:42:51;11.00;99.90
36594;DHT22;22603;47.900;8.146;2024-03-23T02:45:37;11.00;99.90
36594;DHT22;22603;47.900;8.146;2024-03-23T02:48:22;11.10;99.90
36594;DHT22;22603;47.900;8.146;2024-03-23T02:51:08;11.10;99.90
36594;DHT22;22603;47.900;8.146;2024-03-23T02:53:53;11.10;99.90
36594;DHT22;22603;47.900;8.146;2024-03-23T02:56:40;11.00;99.90
36594;DHT22;22603;47.900;8.146;2024-03-23T02:59:26;10.90;99.90
36594;DHT22;22603;47.900;8.146;2024-03-23T03:02:13;11.00;99.90
36594;DHT22;22603;47.900;8.146;2024-03-23T03:04:59;10.90;99.90
36594;DHT22;22603;47.900;8.146;2024-03-23T03:07:43;11.00;99.90
36594;DHT22;22603;47.900;8.146;2024-03-23T03:10:29;10.90;99.90
36594;DHT22;22603;47.900;8.146;2024-03-23T03:13:16;10.80;99.90
36594;DHT22;22603;47.900;8.146;2024-03-23T03:16:02;10.80;99.90
36594;DHT22;22603;47.900;8.146;2024-03-23T03:18:48;10.80;99.90
36594;DHT22;22603;47.900;8.146;2024-03-23T03:21:34;10.70;99.90
36594;DHT22;22603;47.900;8.146;2024-03-23T03:24:19;10.70;99.90
36594;DHT22;22603;47.900;8.146;2024-03-23T03:27:05;10.80;99.90
36594;DHT22;22603;47.900;8.146;2024-03-23T03:29:52;10.70;99.90
36594;DHT22;22603;47.900;8.146;2024-03-23T03:32:38;10.70;99.90
36594;DHT22;22603;47.900;8.146;2024-03-23T03:35:23;10.70;99.90
36594;DHT22;22603;47.900;8.146;2024-03-23T03:38:09;10.60;99.90
36594;DHT22;22603;47.900;8.146;2024-03-23T03:40:53;10.50;99.90
36594;DHT22;22603;47.900;8.146;2024-03-23T03:43:39;10.40;99.90
36594;DHT22;22603;47.900;8.146;2024-03-23T03:46:25;10.60;99.90
36594;DHT22;22603;47.900;8.146;2024-03-23T03:49:11;10.60;99.90
36594;DHT22;22603;47.900;8.146;2024-03-23T03:51:56;10.60;99.90
36594;DHT22;22603;47.900;8.146;2024-03-23T03:54:42;10.70;99.90
36594;DHT22;22603;47.900;8.146;2024-03-23T03:57:27;10.70;99.90
36594;DHT22;22603;47.900;8.146;2024-03-23T04:00:14;10.70;99.90
36594;DHT22;22603;47.900;8.146;2024-03-23T04:03:00;10.70;99.90
36594;DHT22;22603;47.900;8.146;2024-03-23T04:05:51;10.70;99.90
36594;DHT22;22603;47.900;8.146;2024-03-23T04:08:36;10.80;99.90
36594;DHT22;22603;47.900;8.146;2024-03-23T04:11:22;10.70;99.90
36594;DHT22;22603;47.900;8.146;2024-03-23T04:14:06;10.70;99.90
36594;DHT22;22603;47.900;8.146;2024-03-23T04:16:52;10.70;99.90
36594;DHT22;22603;47.900;8.146;2024-03-23T04:19:38;10.70;99.90
36594;DHT22;22603;47.900;8.146;2024-03-23T04:22:25;10.60;99.90
36594;DHT22;22603;47.900;8.146;2024-03-23T04:25:10;10.60;99.90
36594;DHT22;22603;47.900;8.146;2024-03-23T04:27:57;10.60;99.90
36594;DHT22;22603;47.900;8.146;2024-03-23T04:30:41;10.50;99.90
36594;DHT22;22603;47.900;8.146;2024-03-23T04:33:27;10.50;99.90
36594;DHT22;22603;47.900;8.146;2024-03-23T04:36:13;10.50;99.90
36594;DHT22;22603;47.900;8.146;2024-03-23T04:39:00;10.40;99.90
36594;DHT22;22603;47.900;8.146;2024-03-23T04:41:46;10.20;99.90
36594;DHT22;22603;47.900;8.146;2024-03-23T04:44:32;10.00;99.90
36594;DHT22;22603;47.900;8.146;2024-03-23T04:47:18;9.70;99.90
36594;DHT22;22603;47.900;8.146;2024-03-23T04:50:04;9.50;99.90
36594;DHT22;22603;47.900;8.146;2024-03-23T04:52:52;9.40;99.90
36594;DHT22;22603;47.900;8.146;2024-03-23T04:55:38;9.20;99.90
36594;DHT22;22603;47.900;8.146;2024-03-23T04:58:23;9.10;99.90
36594;DHT22;22603;47.900;8.146;2024-03-23T05:01:10;9.00;99.90
36594;DHT22;22603;47.900;8.146;2024-03-23T05:03:54;8.90;99.90
36594;DHT22;22603;47.900;8.146;2024-03-23T05:06:40;8.80;99.90
36594;DHT22;22603;47.900;8.146;2024-03-23T05:09:26;8.80;99.90
36594;DHT22;22603;47.900;8.146;2024-03-23T05:12:14;8.70;99.90
36594;DHT22;22603;47.900;8.146;2024-03-23T05:14:59;8.80;99.90
36594;DHT22;22603;47.900;8.146;2024-03-23T05:17:45;8.80;99.90
36594;DHT22;22603;47.900;8.146;2024-03-23T05:20:30;8.70;99.90
36594;DHT22;22603;47.900;8.146;2024-03-23T05:23:15;8.70;99.90
36594;DHT22;22603;47.900;8.146;2024-03-23T05:26:03;8.70;99.90
36594;DHT22;22603;47.900;8.146;2024-03-23T05:28:48;8.70;99.90
36594;DHT22;22603;47.900;8.146;2024-03-23T05:31:34;8.70;99.90
36594;DHT22;22603;47.900;8.146;2024-03-23T05:34:19;8.60;99.90
36594;DHT22;22603;47.900;8.146;2024-03-23T05:37:05;8.60;99.90
36594;DHT22;22603;47.900;8.146;2024-03-23T05:39:50;8.50;99.90
36594;DHT22;22603;47.900;8.146;2024-03-23T05:42:37;8.50;99.90
36594;DHT22;22603;47.900;8.146;2024-03-23T05:45:22;8.50;99.90
36594;DHT22;22603;47.900;8.146;2024-03-23T05:48:08;8.40;99.90
36594;DHT22;22603;47.900;8.146;2024-03-23T05:50:52;8.40;99.90
36594;DHT22;22603;47.900;8.146;2024-03-23T05:53:38;8.30;99.90
36594;DHT22;22603;47.900;8.146;2024-03-23T05:56:24;8.20;99.90
36594;DHT22;22603;47.900;8.146;2024-03-23T05:59:11;8.10;99.90
36594;DHT22;22603;47.900;8.146;2024-03-23T06:01:56;8.10;99.90
36594;DHT22;22603;47.900;8.146;2024-03-23T06:04:42;8.10;99.90
36594;DHT22;22603;47.900;8.146;2024-03-23T06:07:29;7.90;99.90
36594;DHT22;22603;47.900;8.146;2024-03-23T06:10:16;7.90;99.90
36594;DHT22;22603;47.900;8.146;2024-03-23T06:13:01;7.80;99.90
36594;DHT22;22603;47.900;8.146;2024-03-23T06:15:48;7.80;99.90
36594;DHT22;22603;47.900;8.146;2024-03-23T06:18:33;7.80;99.90
36594;DHT22;22603;47.900;8.146;2024-03-23T06:21:19;7.70;99.90
36594;DHT22;22603;47.900;8.146;2024-03-23T06:24:05;7.70;99.90
36594;DHT22;22603;47.900;8.146;2024-03-23T06:26:50;7.60;99.90
36594;DHT22;22603;47.900;8.146;2024-03-23T06:29:36;7.60;99.90
36594;DHT22;22603;47.900;8.146;2024-03-23T06:32:22;7.50;99.90
36594;DHT22;22603;47.900;8.146;2024-03-23T06:35:08;7.50;99.90
36594;DHT22;22603;47.900;8.146;2024-03-23T06:37:54;7.50;99.90
36594;DHT22;22603;47.900;8.146;2024-03-23T06:40:39;7.50;99.90
36594;DHT22;22603;47.900;8.146;2024-03-23T06:43:24;7.20;99.90
36594;DHT22;22603;47.900;8.146;2024-03-23T06:46:11;6.90;99.90
36594;DHT22;22603;47.900;8.146;2024-03-23T06:48:57;6.60;99.90
36594;DHT22;22603;47.900;8.146;2024-03-23T06:51:43;6.30;99.90
36594;DHT22;22603;47.900;8.146;2024-03-23T06:54:29;6.10;99.90
36594;DHT22;22603;47.900;8.146;2024-03-23T06:57:15;5.90;99.90
36594;DHT22;22603;47.900;8.146;2024-03-23T07:00:00;5.80;99.90
36594;DHT22;22603;47.900;8.146;2024-03-23T07:02:46;5.80;99.90
36594;DHT22;22603;47.900;8.146;2024-03-23T07:05:32;5.70;99.90
36594;DHT22;22603;47.900;8.146;2024-03-23T07:08:17;5.80;99.90
36594;DHT22;22603;47.900;8.146;2024-03-23T07:11:06;5.70;99.90
36594;DHT22;22603;47.900;8.146;2024-03-23T07:13:53;5.50;99.90
36594;DHT22;22603;47.900;8.146;2024-03-23T07:16:39;5.30;99.90
36594;DHT22;22603;47.900;8.146;2024-03-23T07:19:25;5.20;99.90
36594;DHT22;22603;47.900;8.146;2024-03-23T07:22:11;5.10;99.90
36594;DHT22;22603;47.900;8.146;2024-03-23T07:24:59;5.10;99.90
36594;DHT22;22603;47.900;8.146;2024-03-23T07:27:44;5.00;99.90
36594;DHT22;22603;47.900;8.146;2024-03-23T07:30:29;4.90;99.90
36594;DHT22;22603;47.900;8.146;2024-03-23T07:33:14;5.00;99.90
36594;DHT22;22603;47.900;8.146;2024-03-23T07:36:00;4.90;99.90
36594;DHT22;22603;47.900;8.146;2024-03-23T07:38:46;4.80;99.90
36594;DHT22;22603;47.900;8.146;2024-03-23T07:41:32;4.80;99.90
36594;DHT22;22603;47.900;8.146;2024-03-23T07:44:16;4.70;99.90
36594;DHT22;22603;47.900;8.146;2024-03-23T07:47:03;4.70;99.90
36594;DHT22;22603;47.900;8.146;2024-03-23T07:49:48;4.70;99.90
36594;DHT22;22603;47.900;8.146;2024-03-23T07:52:34;4.70;99.90
36594;DHT22;22603;47.900;8.146;2024-03-23T07:55:20;4.70;99.90
36594;DHT22;22603;47.900;8.146;2024-03-23T07:58:07;4.60;99.90
36594;DHT22;22603;47.900;8.146;2024-03-23T08:00:52;4.60;99.90
36594;DHT22;22603;47.900;8.146;2024-03-23T08:03:39;4.50;99.90
36594;DHT22;22603;47.900;8.146;2024-03-23T08:06:25;4.40;99.90
36594;DHT22;22603;47.900;8.146;2024-03-23T08:09:11;4.40;99.90
36594;DHT22;22603;47.900;8.146;2024-03-23T08:11:57;4.30;99.90
36594;DHT22;22603;47.900;8.146;2024-03-23T08:14:43;4.10;99.90
36594;DHT22;22603;47.900;8.146;2024-03-23T08:17:28;4.10;99.90
36594;DHT22;22603;47.900;8.146;2024-03-23T08:20:13;4.10;99.90
36594;DHT22;22603;47.900;8.146;2024-03-23T08:22:58;4.10;99.90
36594;DHT22;22603;47.900;8.146;2024-03-23T08:25:44;4.20;99.90
36594;DHT22;22603;47.900;8.146;2024-03-23T08:28:30;4.30;99.90
36594;DHT22;22603;47.900;8.146;2024-03-23T08:31:16;4.20;99.90
36594;DHT22;22603;47.900;8.146;2024-03-23T08:34:01;4.20;99.90
36594;DHT22;22603;47.900;8.146;2024-03-23T08:36:46;4.20;99.90
36594;DHT22;22603;47.900;8.146;2024-03-23T08:39:32;4.20;99.90
36594;DHT22;22603;47.900;8.146;2024-03-23T08:42:17;4.30;99.90
36594;DHT22;22603;47.900;8.146;2024-03-23T08:45:05;4.30;99.90
36594;DHT22;22603;47.900;8.146;2024-03-23T08:47:52;4.40;99.90
36594;DHT22;22603;47.900;8.146;2024-03-23T08:50:38;4.70;99.90
36594;DHT22;22603;47.900;8.146;2024-03-23T08:53:23;5.00;99.90
36594;DHT22;22603;47.900;8.146;2024-03-23T08:56:08;5.30;99.90
36594;DHT22;22603;47.900;8.146;2024-03-23T08:58:54;6.40;99.90
36594;DHT22;22603;47.900;8.146;2024-03-23T09:01:40;7.40;99.90
36594;DHT22;22603;47.900;8.146;2024-03-23T09:04:27;7.60;99.90
36594;DHT22;22603;47.900;8.146;2024-03-23T09:07:11;7.40;99.90
36594;DHT22;22603;47.900;8.146;2024-03-23T09:09:57;7.00;99.90
36594;DHT22;22603;47.900;8.146;2024-03-23T09:12:41;6.90;99.90
36594;DHT22;22603;47.900;8.146;2024-03-23T09:15:27;6.70;99.90
36594;DHT22;22603;47.900;8.146;2024-03-23T09:18:15;6.30;99.90
36594;DHT22;22603;47.900;8.146;2024-03-23T09:21:01;5.90;99.90
36594;DHT22;22603;47.900;8.146;2024-03-23T09:23:46;5.70;99.90
36594;DHT22;22603;47.900;8.146;2024-03-23T09:26:33;5.60;99.90
36594;DHT22;22603;47.900;8.146;2024-03-23T09:29:18;5.60;99.90
36594;DHT22;22603;47.900;8.146;2024-03-23T09:32:04;5.90;99.90
36594;DHT22;22603;47.900;8.146;2024-03-23T09:34:50;6.20;99.90
36594;DHT22;22603;47.900;8.146;2024-03-23T09:37:37;6.10;99.90
36594;DHT22;22603;47.900;8.146;2024-03-23T09:40:21;6.20;99.90
36594;DHT22;22603;47.900;8.146;2024-03-23T09:43:07;6.60;99.90
36594;DHT22;22603;47.900;8.146;2024-03-23T09:45:53;6.70;99.90
36594;DHT22;22603;47.900;8.146;2024-03-23T09:48:39;6.80;99.90
36594;DHT22;22603;47.900;8.146;2024-03-23T09:51:25;7.80;99.90
36594;DHT22;22603;47.900;8.146;2024-03-23T09:54:11;8.80;99.90
36594;DHT22;22603;47.900;8.146;2024-03-23T09:56:56;9.00;99.90
36594;DHT22;22603;47.900;8.146;2024-03-23T09:59:42;8.60;99.90
36594;DHT22;22603;47.900;8.146;2024-03-23T10:02:28;8.30;99.90
36594;DHT22;22603;47.900;8.146;2024-03-23T10:05:21;8.60;99.90
36594;DHT22;22603;47.900;8.146;2024-03-23T10:08:19;9.10;99.90
36594;DHT22;22603;47.900;8.146;2024-03-23T10:11:13;10.60;99.90
36594;DHT22;22603;47.900;8.146;2024-03-23T10:14:00;11.60;99.90
36594;DHT22;22603;47.900;8.146;2024-03-23T10:16:46;12.30;99.90
36594;DHT22;22603;47.900;8.146;2024-03-23T10:19:31;11.60;99.90
36594;DHT22;22603;47.900;8.146;2024-03-23T10:22:19;10.70;99.90
36594;DHT22;22603;47.900;8.146;2024-03-23T10:25:09;10.70;99.90
36594;DHT22;22603;47.900;8.146;2024-03-23T10:27:59;10.60;99.90
36594;DHT22;22603;47.900;8.146;2024-03-23T10:30:44;9.80;99.90
36594;DHT22;22603;47.900;8.146;2024-03-23T10:33:30;9.20;99.90
36594;DHT22;22603;47.900;8.146;2024-03-23T10:36:15;8.40;99.90
36594;DHT22;22603;47.900;8.146;2024-03-23T10:39:01;7.90;99.90
36594;DHT22;22603;47.900;8.146;2024-03-23T10:41:49;7.60;99.90
36594;DHT22;22603;47.900;8.146;2024-03-23T10:44:36;7.20;99.90
36594;DHT22;22603;47.900;8.146;2024-03-23T10:47:21;6.90;99.90
36594;DHT22;22603;47.900;8.146;2024-03-23T10:50:07;6.70;99.90
36594;DHT22;22603;47.900;8.146;2024-03-23T10:52:53;6.40;99.90
36594;DHT22;22603;47.900;8.146;2024-03-23T10:55:42;6.10;99.90
36594;DHT22;22603;47.900;8.146;2024-03-23T10:58:31;5.80;99.90
36594;DHT22;22603;47.900;8.146;2024-03-23T11:01:18;6.10;99.90
36594;DHT22;22603;47.900;8.146;2024-03-23T11:04:03;6.20;99.90
36594;DHT22;22603;47.900;8.146;2024-03-23T11:06:49;5.80;99.90
36594;DHT22;22603;47.900;8.146;2024-03-23T11:09:39;6.40;99.90
36594;DHT22;22603;47.900;8.146;2024-03-23T11:12:30;6.30;99.90
36594;DHT22;22603;47.900;8.146;2024-03-23T11:15:19;6.00;99.90
36594;DHT22;22603;47.900;8.146;2024-03-23T11:18:05;5.60;99.90
36594;DHT22;22603;47.900;8.146;2024-03-23T11:20:52;5.00;99.90
36594;DHT22;22603;47.900;8.146;2024-03-23T11:23:37;4.70;99.90
36594;DHT22;22603;47.900;8.146;2024-03-23T11:26:23;4.40;99.90
36594;DHT22;22603;47.900;8.146;2024-03-23T11:29:09;4.00;99.90
36594;DHT22;22603;47.900;8.146;2024-03-23T11:31:56;3.90;99.90
36594;DHT22;22603;47.900;8.146;2024-03-23T11:34:42;3.90;99.90
36594;DHT22;22603;47.900;8.146;2024-03-23T11:37:28;3.80;99.90
36594;DHT22;22603;47.900;8.146;2024-03-23T11:40:17;3.80;99.90
36594;DHT22;22603;47.900;8.146;2024-03-23T11:43:05;3.80;99.90
36594;DHT22;22603;47.900;8.146;2024-03-23T11:45:51;3.90;99.90
36594;DHT22;22603;47.900;8.146;2024-03-23T11:48:40;4.10;99.90
36594;DHT22;22603;47.900;8.146;2024-03-23T11:51:25;4.10;99.90
36594;DHT22;22603;47.900;8.146;2024-03-23T11:54:11;4.40;99.90
36594;DHT22;22603;47.900;8.146;2024-03-23T11:56:57;4.50;99.90
36594;DHT22;22603;47.900;8.146;2024-03-23T11:59:43;4.40;99.90
36594;DHT22;22603;47.900;8.146;2024-03-23T12:02:28;4.40;99.90
36594;DHT22;22603;47.900;8.146;2024-03-23T12:05:17;4.40;99.90
36594;DHT22;22603;47.900;8.146;2024-03-23T12:08:18;4.50;99.90
36594;DHT22;22603;47.900;8.146;2024-03-23T12:11:05;4.40;99.90
36594;DHT22;22603;47.900;8.146;2024-03-23T12:13:50;4.50;99.90
36594;DHT22;22603;47.900;8.146;2024-03-23T12:16:37;5.40;99.90
36594;DHT22;22603;47.900;8.146;2024-03-23T12:19:21;6.10;99.90
36594;DHT22;22603;47.900;8.146;2024-03-23T12:22:09;6.60;99.90
36594;DHT22;22603;47.900;8.146;2024-03-23T12:24:54;6.80;99.90
36594;DHT22;22603;47.900;8.146;2024-03-23T12:27:40;6.70;99.90
36594;DHT22;22603;47.900;8.146;2024-03-23T12:30:25;6.20;99.90
36594;DHT22;22603;47.900;8.146;2024-03-23T12:33:10;6.00;99.90
36594;DHT22;22603;47.900;8.146;2024-03-23T12:35:56;6.10;99.90
36594;DHT22;22603;47.900;8.146;2024-03-23T12:38:43;7.00;99.90
36594;DHT22;22603;47.900;8.146;2024-03-23T12:41:29;7.40;99.90
36594;DHT22;22603;47.900;8.146;2024-03-23T12:44:14;7.70;99.90
36594;DHT22;22603;47.900;8.146;2024-03-23T12:47:00;7.80;99.90
36594;DHT22;22603;47.900;8.146;2024-03-23T12:49:46;8.20;99.90
36594;DHT22;22603;47.900;8.146;2024-03-23T12:52:31;7.60;99.90
36594;DHT22;22603;47.900;8.146;2024-03-23T12:55:19;7.60;99.90
36594;DHT22;22603;47.900;8.146;2024-03-23T12:58:05;7.20;99.90
36594;DHT22;22603;47.900;8.146;2024-03-23T13:00:52;6.20;99.90
36594;DHT22;22603;47.900;8.146;2024-03-23T13:03:36;5.60;99.90
36594;DHT22;22603;47.900;8.146;2024-03-23T13:06:23;5.50;99.90
36594;DHT22;22603;47.900;8.146;2024-03-23T13:09:08;5.60;99.90
36594;DHT22;22603;47.900;8.146;2024-03-23T13:11:55;6.00;99.90
36594;DHT22;22603;47.900;8.146;2024-03-23T13:14:41;5.90;99.90
36594;DHT22;22603;47.900;8.146;2024-03-23T13:17:27;6.20;99.90
36594;DHT22;22603;47.900;8.146;2024-03-23T13:20:12;6.70;99.90
36594;DHT22;22603;47.900;8.146;2024-03-23T13:22:59;6.60;99.90
36594;DHT22;22603;47.900;8.146;2024-03-23T13:25:49;7.00;99.90
36594;DHT22;22603;47.900;8.146;2024-03-23T13:28:38;6.40;99.90
36594;DHT22;22603;47.900;8.146;2024-03-23T13:31:25;6.00;99.90
36594;DHT22;22603;47.900;8.146;2024-03-23T13:34:09;5.80;99.90
36594;DHT22;22603;47.900;8.146;2024-03-23T13:36:56;5.80;99.90
36594;DHT22;22603;47.900;8.146;2024-03-23T13:39:43;5.70;99.90
36594;DHT22;22603;47.900;8.146;2024-03-23T13:42:28;5.90;99.90
36594;DHT22;22603;47.900;8.146;2024-03-23T13:45:15;6.30;99.90
36594;DHT22;22603;47.900;8.146;2024-03-23T13:48:00;6.30;99.90
36594;DHT22;22603;47.900;8.146;2024-03-23T13:50:46;6.50;99.90
36594;DHT22;22603;47.900;8.146;2024-03-23T13:53:32;6.70;99.90
36594;DHT22;22603;47.900;8.146;2024-03-23T13:56:18;6.80;99.90
36594;DHT22;22603;47.900;8.146;2024-03-23T13:59:03;7.40;99.90
36594;DHT22;22603;47.900;8.146;2024-03-23T14:01:50;7.60;99.90
36594;DHT22;22603;47.900;8.146;2024-03-23T14:04:35;7.60;99.90
36594;DHT22;22603;47.900;8.146;2024-03-23T14:07:22;7.70;99.90
36594;DHT22;22603;47.900;8.146;2024-03-23T14:10:07;7.70;99.90
36594;DHT22;22603;47.900;8.146;2024-03-23T14:12:55;7.80;99.90
36594;DHT22;22603;47.900;8.146;2024-03-23T14:15:40;7.90;99.90
36594;DHT22;22603;47.900;8.146;2024-03-23T14:18:27;7.80;99.90
36594;DHT22;22603;47.900;8.146;2024-03-23T14:21:12;7.70;99.90
36594;DHT22;22603;47.900;8.146;2024-03-23T14:23:58;7.80;99.90
36594;DHT22;22603;47.900;8.146;2024-03-23T14:26:45;7.90;99.90
36594;DHT22;22603;47.900;8.146;2024-03-23T14:29:30;8.00;99.90
36594;DHT22;22603;47.900;8.146;2024-03-23T14:32:16;7.90;99.90
36594;DHT22;22603;47.900;8.146;2024-03-23T14:35:02;8.00;99.90
36594;DHT22;22603;47.900;8.146;2024-03-23T14:37:48;7.70;99.90
36594;DHT22;22603;47.900;8.146;2024-03-23T14:40:33;7.20;99.90
36594;DHT22;22603;47.900;8.146;2024-03-23T14:43:18;7.30;99.90
36594;DHT22;22603;47.900;8.146;2024-03-23T14:46:07;7.10;99.90
36594;DHT22;22603;47.900;8.146;2024-03-23T14:48:53;6.90;99.90
36594;DHT22;22603;47.900;8.146;2024-03-23T14:51:41;6.80;99.90
36594;DHT22;22603;47.900;8.146;2024-03-23T14:54:26;6.70;99.90
36594;DHT22;22603;47.900;8.146;2024-03-23T14:57:11;6.70;99.90
36594;DHT22;22603;47.900;8.146;2024-03-23T14:59:57;6.30;99.90
36594;DHT22;22603;47.900;8.146;2024-03-23T15:02:42;6.00;99.90
36594;DHT22;22603;47.900;8.146;2024-03-23T15:05:29;5.70;99.90
36594;DHT22;22603;47.900;8.146;2024-03-23T15:08:16;5.70;99.90
36594;DHT22;22603;47.900;8.146;2024-03-23T15:11:02;5.50;99.90
36594;DHT22;22603;47.900;8.146;2024-03-23T15:13:50;5.50;99.90
36594;DHT22;22603;47.900;8.146;2024-03-23T15:16:36;5.30;99.90
36594;DHT22;22603;47.900;8.146;2024-03-23T15:19:21;5.30;99.90
36594;DHT22;22603;47.900;8.146;2024-03-23T15:22:07;5.00;99.90
36594;DHT22;22603;47.900;8.146;2024-03-23T15:24:54;5.00;99.90
36594;DHT22;22603;47.900;8.146;2024-03-23T15:27:41;4.90;99.90
36594;DHT22;22603;47.900;8.146;2024-03-23T15:30:26;4.90;99.90
36594;DHT22;22603;47.900;8.146;2024-03-23T15:33:12;4.90;99.90
36594;DHT22;22603;47.900;8.146;2024-03-23T15:35:58;4.80;99.90
36594;DHT22;22603;47.900;8.146;2024-03-23T15:38:44;4.90;99.90
36594;DHT22;22603;47.900;8.146;2024-03-23T15:41:31;5.20;99.90
36594;DHT22;22603;47.900;8.146;2024-03-23T15:44:18;5.00;99.90
36594;DHT22;22603;47.900;8.146;2024-03-23T15:47:03;5.30;99.90
36594;DHT22;22603;47.900;8.146;2024-03-23T15:49:49;5.30;99.90
36594;DHT22;22603;47.900;8.146;2024-03-23T15:52:35;5.40;99.90
36594;DHT22;22603;47.900;8.146;2024-03-23T15:55:21;5.00;99.90
36594;DHT22;22603;47.900;8.146;2024-03-23T15:58:07;4.90;99.90
36594;DHT22;22603;47.900;8.146;2024-03-23T16:00:57;4.90;99.90
36594;DHT22;22603;47.900;8.146;2024-03-23T16:03:42;4.80;99.90
36594;DHT22;22603;47.900;8.146;2024-03-23T16:06:28;4.80;99.90
36594;DHT22;22603;47.900;8.146;2024-03-23T16:09:13;4.70;99.90
36594;DHT22;22603;47.900;8.146;2024-03-23T16:11:59;4.60;99.90
36594;DHT22;22603;47.900;8.146;2024-03-23T16:14:45;4.40;99.90
36594;DHT22;22603;47.900;8.146;2024-03-23T16:17:31;4.10;99.90
36594;DHT22;22603;47.900;8.146;2024-03-23T16:20:19;4.10;99.90
36594;DHT22;22603;47.900;8.146;2024-03-23T16:23:06;3.90;99.90
36594;DHT22;22603;47.900;8.146;2024-03-23T16:25:52;3.90;99.90
36594;DHT22;22603;47.900;8.146;2024-03-23T16:28:45;3.80;99.90
36594;DHT22;22603;47.900;8.146;2024-03-23T16:31:34;3.50;99.90
36594;DHT22;22603;47.900;8.146;2024-03-23T16:34:20;3.40;99.90
36594;DHT22;22603;47.900;8.146;2024-03-23T16:37:04;3.40;99.90
36594;DHT22;22603;47.900;8.146;2024-03-23T16:39:55;3.10;99.90
36594;DHT22;22603;47.900;8.146;2024-03-23T16:42:41;2.70;99.90
36594;DHT22;22603;47.900;8.146;2024-03-23T16:45:26;2.40;99.90
36594;DHT22;22603;47.900;8.146;2024-03-23T16:48:14;2.30;99.90
36594;DHT22;22603;47.900;8.146;2024-03-23T16:51:00;2.30;99.90
36594;DHT22;22603;47.900;8.146;2024-03-23T16:53:45;2.30;99.90
36594;DHT22;22603;47.900;8.146;2024-03-23T16:56:30;2.30;99.90
36594;DHT22;22603;47.900;8.146;2024-03-23T16:59:16;2.30;99.90
36594;DHT22;22603;47.900;8.146;2024-03-23T17:02:02;2.30;99.90
36594;DHT22;22603;47.900;8.146;2024-03-23T17:04:50;2.40;99.90
36594;DHT22;22603;47.900;8.146;2024-03-23T17:07:34;2.50;99.90
36594;DHT22;22603;47.900;8.146;2024-03-23T17:10:20;2.60;99.90
36594;DHT22;22603;47.900;8.146;2024-03-23T17:13:05;2.70;99.90
36594;DHT22;22603;47.900;8.146;2024-03-23T17:15:51;2.70;99.90
36594;DHT22;22603;47.900;8.146;2024-03-23T17:18:35;2.60;99.90
36594;DHT22;22603;47.900;8.146;2024-03-23T17:21:23;2.50;99.90
36594;DHT22;22603;47.900;8.146;2024-03-23T17:24:07;2.30;99.90
36594;DHT22;22603;47.900;8.146;2024-03-23T17:26:54;2.40;99.90
36594;DHT22;22603;47.900;8.146;2024-03-23T17:29:39;2.40;99.90
36594;DHT22;22603;47.900;8.146;2024-03-23T17:32:27;2.30;99.90
36594;DHT22;22603;47.900;8.146;2024-03-23T17:35:12;2.30;99.90
36594;DHT22;22603;47.900;8.146;2024-03-23T17:38:00;2.40;99.90
36594;DHT22;22603;47.900;8.146;2024-03-23T17:40:46;2.30;99.90
36594;DHT22;22603;47.900;8.146;2024-03-23T17:43:32;2.30;99.90
36594;DHT22;22603;47.900;8.146;2024-03-23T17:46:19;2.30;99.90
36594;DHT22;22603;47.900;8.146;2024-03-23T17:49:05;2.30;99.90
36594;DHT22;22603;47.900;8.146;2024-03-23T17:51:50;2.30;99.90
36594;DHT22;22603;47.900;8.146;2024-03-23T17:54:37;2.30;99.90
36594;DHT22;22603;47.900;8.146;2024-03-23T17:57:23;2.30;99.90
36594;DHT22;22603;47.900;8.146;2024-03-23T18:00:10;2.30;99.90
36594;DHT22;22603;47.900;8.146;2024-03-23T18:02:56;2.20;99.90
36594;DHT22;22603;47.900;8.146;2024-03-23T18:05:42;2.20;99.90
36594;DHT22;22603;47.900;8.146;2024-03-23T18:08:27;2.20;99.90
36594;DHT22;22603;47.900;8.146;2024-03-23T18:11:14;2.20;99.90
36594;DHT22;22603;47.900;8.146;2024-03-23T18:13:58;2.20;99.90
36594;DHT22;22603;47.900;8.146;2024-03-23T18:16:45;2.10;99.90
36594;DHT22;22603;47.900;8.146;2024-03-23T18:19:30;2.10;99.90
36594;DHT22;22603;47.900;8.146;2024-03-23T18:22:16;2.10;99.90
36594;DHT22;22603;47.900;8.146;2024-03-23T18:25:01;2.00;99.90
36594;DHT22;22603;47.900;8.146;2024-03-23T18:27:51;2.00;99.90
36594;DHT22;22603;47.900;8.146;2024-03-23T18:30:38;2.10;99.90
36594;DHT22;22603;47.900;8.146;2024-03-23T18:33:24;2.20;99.90